• Join FlightAware (Why Join?)
  • Login
  • US Flag 
01:09AM EDT


 

Airport Tracker/Info


-or-


 

Live Flight TrackerFlight Track Log ✈ EGF5022 ✈ 01-Apr-2013 ✈ KMSN - KORD

Flight Track Log - Related Links

Times and Time Zones

All times are in EDT time to prevent confusion due to time zone crossing. See the EGF5022 flight status page for this flight to view local times or setup timezone preferences in your user account.

Time Position Orientation Groundspeed Altitude Reporting Facility
EDT Latitude Longitude Course Direction KTS MPH feet Rate Location/Type
02:07PM 42.9902 -89.1484 137° Southeast  Level Estimated
02:08PM 42.9403 -89.0855 137° Southeast  Level Estimated
02:09PM 42.8903 -89.0228 137° Southeast  Level Estimated
02:10PM 42.8403 -88.9602 137° Southeast  Level Estimated
02:11PM 42.7903 -88.8976 137° Southeast  Level Estimated
02:12PM 42.7402 -88.8352 138° Southeast  Level Estimated
02:13PM 42.6901 -88.7729 138° Southeast  Level Estimated
02:14PM 42.6399 -88.7106 138° Southeast  Level Estimated
02:15PM 42.5897 -88.6485 138° Southeast  Level Estimated
02:16PM 42.5395 -88.5865 138° Southeast  Level Estimated
02:17PM 42.4893 -88.5246 138° Southeast  Level Estimated
02:18PM 42.4448 -88.4699 138° Southeast  Level Estimated
02:19PM 42.3966 -88.4107 138° Southeast  Level Estimated
02:20PM 42.3484 -88.3516 138° Southeast  Level Estimated
02:21PM 42.3001 -88.2926 138° Southeast  Level Estimated
02:22PM 42.2518 -88.2337 138° Southeast  Level Estimated
02:23PM 42.2034 -88.1749 138° Southeast  Level Estimated
02:24PM 42.1551 -88.1162 138° Southeast  Level Estimated
02:25PM 42.1067 -88.0576 138° Southeast  Level Estimated
02:26PM 42.0583 -87.9990 138° Southeast  Level Estimated
02:27PM 42.0098 -87.9406 138° Southeast  Level Estimated
02:28PM 41.9817 -87.9067 138° Southeast  Level Estimated
02:29PM 41.9817 -87.9067 217° Southwest  Level Estimated
02:30PM 41.9817 -87.9067 217° Southwest  Level Estimated